createdAt,value
2018-11-06T00:02:20.486Z,97559.55
2018-11-06T00:04:47.176Z,97565.06
2018-11-06T00:07:13.581Z,97564.49
2018-11-06T00:09:40.002Z,97567.98
2018-11-06T00:12:06.702Z,97566.16
2018-11-06T00:14:33.118Z,97564.98
2018-11-06T00:17:00.054Z,97560.41
2018-11-06T00:19:26.518Z,97558.13
2018-11-06T00:21:53.261Z,97557.66
2018-11-06T00:24:19.735Z,97562.05
2018-11-06T00:26:48.188Z,97564.80
2018-11-06T00:29:14.787Z,97569.00
2018-11-06T00:31:41.487Z,97570.46
2018-11-06T00:34:07.915Z,97564.52
2018-11-06T00:36:34.326Z,97564.14
2018-11-06T00:39:00.738Z,97566.30
2018-11-06T00:41:27.451Z,97568.00
2018-11-06T00:43:53.852Z,97576.66
2018-11-06T00:46:20.262Z,97575.70
2018-11-06T00:48:46.661Z,97571.20
2018-11-06T00:51:13.814Z,97560.15
2018-11-06T00:53:40.250Z,97556.90
2018-11-06T00:56:07.324Z,97562.82
2018-11-06T00:59:35.523Z,97555.00
2018-11-06T01:34:04.939Z,97586.69
2018-11-06T01:36:31.563Z,97589.77
2018-11-06T01:38:58.200Z,97590.23
2018-11-06T01:41:25.086Z,97590.20
2018-11-06T01:43:51.510Z,97583.40
2018-11-06T01:46:17.914Z,97582.70
2018-11-06T01:48:44.325Z,97582.67
2018-11-06T01:51:11.220Z,97584.64
2018-11-06T01:58:40.808Z,97589.36
2018-11-06T02:01:07.286Z,97592.20
2018-11-06T02:03:33.920Z,97588.33
2018-11-06T02:06:00.318Z,97583.14
2018-11-06T02:08:27.102Z,97582.45
2018-11-06T02:10:53.514Z,97584.36
2018-11-06T02:13:19.921Z,97582.88
2018-11-06T02:15:46.338Z,97584.50
2018-11-06T02:18:13.153Z,97585.62
2018-11-06T02:20:39.582Z,97586.98
2018-11-06T02:40:41.339Z,97582.37
2018-11-06T03:33:13.795Z,97587.23
2018-11-06T03:35:40.361Z,97597.39
2018-11-06T03:38:06.821Z,97601.83
2018-11-06T03:40:33.723Z,97602.95
2018-11-06T03:43:00.383Z,97602.92
2018-11-06T03:45:27.231Z,97611.76
2018-11-06T03:47:53.683Z,97604.77
2018-11-06T03:50:20.406Z,97608.72
2018-11-06T03:52:46.823Z,97612.56
2018-11-06T03:55:13.234Z,97611.06
2018-11-06T03:57:39.721Z,97615.50
2018-11-06T04:04:21.668Z,97613.03
2018-11-06T04:06:48.125Z,97609.52
2018-11-06T04:09:14.633Z,97615.32
2018-11-06T04:11:41.334Z,97604.59
2018-11-06T04:14:08.613Z,97601.33
2018-11-06T04:16:35.200Z,97605.73
2018-11-06T04:22:09.899Z,97608.75
2018-11-06T04:24:36.335Z,97611.77
2018-11-06T04:27:02.814Z,97611.95
2018-11-06T04:29:30.770Z,97604.34
2018-11-06T04:31:57.321Z,97600.30
2018-11-06T04:34:23.787Z,97603.28
2018-11-06T04:36:50.279Z,97600.66
2018-11-06T04:39:17.521Z,97601.97
2018-11-06T04:41:43.916Z,97601.08
2018-11-06T04:44:10.320Z,97594.16
2018-11-06T04:46:36.734Z,97594.61
2018-11-06T04:59:43.429Z,97592.35
2018-11-06T05:02:09.935Z,97593.26
2018-11-06T05:04:36.530Z,97604.59
2018-11-06T05:07:03.475Z,97604.48
2018-11-06T05:09:30.826Z,97600.33
2018-11-06T05:11:57.222Z,97604.80
2018-11-06T05:14:23.665Z,97603.98
2018-11-06T05:16:50.408Z,97598.20
2018-11-06T05:19:16.820Z,97596.14
2018-11-06T05:40:50.751Z,97607.86
2018-11-06T05:43:17.294Z,97610.59
2018-11-06T05:45:44.388Z,97612.55
2018-11-06T05:48:11.576Z,97614.33
2018-11-06T05:50:38.003Z,97605.98
2018-11-06T05:53:04.962Z,97615.00
2018-11-06T05:55:31.619Z,97614.29
2018-11-06T06:40:45.600Z,97619.19
2018-11-06T06:43:12.078Z,97611.09
2018-11-06T06:45:38.844Z,97609.22
2018-11-06T06:48:05.307Z,97613.61
2018-11-06T06:53:48.323Z,97619.59
2018-11-06T06:56:14.778Z,97622.02
2018-11-06T06:58:41.746Z,97625.70
2018-11-06T07:01:08.250Z,97630.50
2018-11-06T07:03:34.758Z,97631.81
2018-11-06T07:06:01.618Z,97638.29
2018-11-06T07:08:28.092Z,97636.70
2018-11-06T07:10:54.591Z,97637.72
2018-11-06T07:13:21.493Z,97634.44
2018-11-06T07:15:47.998Z,97636.22
2018-11-06T07:18:15.070Z,97636.58
2018-11-06T07:20:42.589Z,97636.11
2018-11-06T07:23:10.651Z,97644.75
2018-11-06T07:25:37.051Z,97643.97
2018-11-06T07:28:03.807Z,97645.28
2018-11-06T07:30:30.225Z,97649.44
2018-11-06T07:32:56.626Z,97654.28
2018-11-06T07:36:35.551Z,97655.29
2018-11-06T07:39:02.042Z,97651.98
2018-11-06T07:54:31.905Z,97656.97
2018-11-06T08:26:47.168Z,97672.78
2018-11-06T08:29:13.594Z,97678.09
2018-11-06T08:31:40.610Z,97678.15
2018-11-06T08:34:07.567Z,97680.80
2018-11-06T08:36:34.053Z,97676.63
2018-11-06T08:39:00.898Z,97688.34
2018-11-06T08:41:27.298Z,97689.66
2018-11-06T08:43:53.723Z,97690.64
2018-11-06T08:46:20.449Z,97687.90
2018-11-06T08:48:47.697Z,97681.89
2018-11-06T09:45:27.703Z,97654.92
2018-11-06T09:47:54.155Z,97650.48
2018-11-06T10:00:53.180Z,97632.95
2018-11-06T10:03:19.898Z,97635.83
2018-11-06T10:20:27.625Z,97606.92
2018-11-06T10:22:54.050Z,97607.34
2018-11-06T11:26:36.198Z,97588.33
2018-11-06T11:29:02.707Z,97572.95
2018-11-06T11:51:51.040Z,97552.66
2018-11-06T13:03:04.723Z,97523.89
2018-11-06T16:35:08.665Z,97482.48
2018-11-06T16:42:25.357Z,97490.23
2018-11-06T16:44:52.275Z,97485.42
2018-11-06T16:47:18.699Z,97495.64
2018-11-06T16:54:26.686Z,97506.58
2018-11-06T17:00:53.984Z,97511.70
2018-11-06T17:03:20.385Z,97507.66
2018-11-06T17:05:47.238Z,97506.66
2018-11-06T17:58:04.539Z,97499.88
2018-11-06T18:00:34.742Z,97488.22
2018-11-06T18:10:31.661Z,97517.66
2018-11-06T19:16:05.334Z,97566.52
2018-11-06T19:18:34.020Z,97570.30
2018-11-06T19:24:28.869Z,97588.33
2018-11-06T19:26:55.306Z,97589.43
2018-11-06T19:29:22.110Z,97589.91
2018-11-06T19:31:49.559Z,97592.59
2018-11-06T19:45:47.948Z,97596.27
2018-11-06T19:57:00.240Z,97604.41
2018-11-06T19:59:26.720Z,97592.82
2018-11-06T20:01:54.560Z,97597.75
2018-11-06T20:04:23.158Z,97605.23
2018-11-06T20:06:49.608Z,97602.10
2018-11-06T20:09:16.328Z,97611.60
2018-11-06T20:43:27.382Z,97602.23
2018-11-06T20:45:53.795Z,97599.34
2018-11-06T20:48:22.301Z,97604.30
2018-11-06T20:50:50.071Z,97592.97
2018-11-06T20:53:16.484Z,97605.13
2018-11-06T20:55:43.378Z,97612.47
2018-11-06T20:58:09.700Z,97604.16
2018-11-06T21:00:36.120Z,97598.99
2018-11-06T21:10:58.117Z,97617.54
2018-11-06T21:21:26.917Z,97616.42
2018-11-06T21:23:53.422Z,97622.33
2018-11-06T21:26:20.491Z,97624.02
2018-11-06T21:32:12.615Z,97625.69
2018-11-06T21:34:39.205Z,97632.91
2018-11-06T21:37:05.800Z,97627.47
2018-11-06T21:40:43.184Z,97629.36
2018-11-06T21:43:09.657Z,97632.52
2018-11-06T22:04:38.664Z,97625.59
2018-11-06T22:07:05.237Z,97627.78
2018-11-06T22:09:32.349Z,97633.22
2018-11-06T22:11:58.789Z,97624.30
2018-11-06T22:14:25.930Z,97637.92
2018-11-06T22:16:53.358Z,97639.87
2018-11-06T22:31:09.347Z,97656.15
2018-11-06T22:33:36.038Z,97644.61
2018-11-06T22:57:54.131Z,97644.54
2018-11-06T23:00:20.904Z,97646.37
2018-11-06T23:04:51.379Z,97655.98
2018-11-06T23:07:17.895Z,97657.68
